sensor_id;sensor_type;location;lat;lon;timestamp;temperature;humidity
5792;DHT22;2922;53.482;10.006;2023-12-07T00:00:34;0.90;99.90
5792;DHT22;2922;53.482;10.006;2023-12-07T00:03:00;0.90;99.90
5792;DHT22;2922;53.482;10.006;2023-12-07T00:05:25;0.90;99.90
5792;DHT22;2922;53.482;10.006;2023-12-07T00:07:51;0.90;99.90
5792;DHT22;2922;53.482;10.006;2023-12-07T00:10:16;0.90;99.90
5792;DHT22;2922;53.482;10.006;2023-12-07T00:12:42;0.90;99.90
5792;DHT22;2922;53.482;10.006;2023-12-07T00:15:08;0.80;99.90
5792;DHT22;2922;53.482;10.006;2023-12-07T00:17:33;0.80;99.90
5792;DHT22;2922;53.482;10.006;2023-12-07T00:19:59;0.80;99.90
5792;DHT22;2922;53.482;10.006;2023-12-07T00:22:25;0.80;99.90
5792;DHT22;2922;53.482;10.006;2023-12-07T00:24:51;0.90;99.90
5792;DHT22;2922;53.482;10.006;2023-12-07T00:27:17;0.90;99.90
5792;DHT22;2922;53.482;10.006;2023-12-07T00:29:43;0.80;99.90
5792;DHT22;2922;53.482;10.006;2023-12-07T00:32:08;0.90;99.90
5792;DHT22;2922;53.482;10.006;2023-12-07T00:34:34;0.80;99.90
5792;DHT22;2922;53.482;10.006;2023-12-07T00:37:00;0.90;99.90
5792;DHT22;2922;53.482;10.006;2023-12-07T00:39:25;0.80;99.90
5792;DHT22;2922;53.482;10.006;2023-12-07T00:41:51;0.80;99.90
5792;DHT22;2922;53.482;10.006;2023-12-07T00:44:18;0.80;99.90
5792;DHT22;2922;53.482;10.006;2023-12-07T00:46:43;0.80;99.90
5792;DHT22;2922;53.482;10.006;2023-12-07T00:49:09;0.90;99.90
5792;DHT22;2922;53.482;10.006;2023-12-07T00:51:35;0.90;99.90
5792;DHT22;2922;53.482;10.006;2023-12-07T00:54:00;0.90;99.90
5792;DHT22;2922;53.482;10.006;2023-12-07T00:56:26;0.90;99.90
5792;DHT22;2922;53.482;10.006;2023-12-07T00:58:52;0.90;99.90
5792;DHT22;2922;53.482;10.006;2023-12-07T01:01:17;0.80;99.90
5792;DHT22;2922;53.482;10.006;2023-12-07T01:03:43;0.90;99.90
5792;DHT22;2922;53.482;10.006;2023-12-07T01:06:08;0.90;99.90
5792;DHT22;2922;53.482;10.006;2023-12-07T01:08:36;0.90;99.90
5792;DHT22;2922;53.482;10.006;2023-12-07T01:11:03;0.80;99.90
5792;DHT22;2922;53.482;10.006;2023-12-07T01:13:28;0.90;99.90
5792;DHT22;2922;53.482;10.006;2023-12-07T01:15:54;0.90;99.90
5792;DHT22;2922;53.482;10.006;2023-12-07T01:18:20;0.90;99.90
5792;DHT22;2922;53.482;10.006;2023-12-07T01:20:46;0.90;99.90
5792;DHT22;2922;53.482;10.006;2023-12-07T01:23:12;0.90;99.90
5792;DHT22;2922;53.482;10.006;2023-12-07T01:25:37;0.90;99.90
5792;DHT22;2922;53.482;10.006;2023-12-07T01:28:03;0.90;99.90
5792;DHT22;2922;53.482;10.006;2023-12-07T01:30:28;0.90;99.90
5792;DHT22;2922;53.482;10.006;2023-12-07T01:32:55;0.90;99.90
5792;DHT22;2922;53.482;10.006;2023-12-07T01:35:20;0.90;99.90
5792;DHT22;2922;53.482;10.006;2023-12-07T01:37:46;0.90;99.90
5792;DHT22;2922;53.482;10.006;2023-12-07T01:40:11;0.90;99.90
5792;DHT22;2922;53.482;10.006;2023-12-07T01:42:37;0.90;99.90
5792;DHT22;2922;53.482;10.006;2023-12-07T01:45:05;0.90;99.90
5792;DHT22;2922;53.482;10.006;2023-12-07T01:47:31;0.90;99.90
5792;DHT22;2922;53.482;10.006;2023-12-07T01:49:59;0.90;99.90
5792;DHT22;2922;53.482;10.006;2023-12-07T01:52:27;0.90;99.90
5792;DHT22;2922;53.482;10.006;2023-12-07T01:54:54;0.90;99.90
5792;DHT22;2922;53.482;10.006;2023-12-07T01:57:20;0.90;99.90
5792;DHT22;2922;53.482;10.006;2023-12-07T01:59:46;0.90;99.90
5792;DHT22;2922;53.482;10.006;2023-12-07T02:02:13;0.90;99.90
5792;DHT22;2922;53.482;10.006;2023-12-07T02:04:39;0.90;99.90
5792;DHT22;2922;53.482;10.006;2023-12-07T02:07:06;0.90;99.90
5792;DHT22;2922;53.482;10.006;2023-12-07T02:09:32;1.00;99.90
5792;DHT22;2922;53.482;10.006;2023-12-07T02:11:57;1.00;99.90
5792;DHT22;2922;53.482;10.006;2023-12-07T02:14:23;1.00;99.90
5792;DHT22;2922;53.482;10.006;2023-12-07T02:16:53;1.00;99.90
5792;DHT22;2922;53.482;10.006;2023-12-07T02:21:58;1.00;99.90
5792;DHT22;2922;53.482;10.006;2023-12-07T02:24:26;1.00;99.90
5792;DHT22;2922;53.482;10.006;2023-12-07T02:26:53;1.00;99.90
5792;DHT22;2922;53.482;10.006;2023-12-07T02:29:19;1.00;99.90
5792;DHT22;2922;53.482;10.006;2023-12-07T02:31:44;1.10;99.90
5792;DHT22;2922;53.482;10.006;2023-12-07T02:34:10;1.10;99.90
5792;DHT22;2922;53.482;10.006;2023-12-07T02:36:38;1.00;99.90
5792;DHT22;2922;53.482;10.006;2023-12-07T02:39:05;1.10;99.90
5792;DHT22;2922;53.482;10.006;2023-12-07T02:41:32;1.10;99.90
5792;DHT22;2922;53.482;10.006;2023-12-07T02:43:59;1.10;99.90
5792;DHT22;2922;53.482;10.006;2023-12-07T02:46:25;1.10;99.90
5792;DHT22;2922;53.482;10.006;2023-12-07T02:48:51;1.10;99.90
5792;DHT22;2922;53.482;10.006;2023-12-07T02:51:17;1.10;99.90
5792;DHT22;2922;53.482;10.006;2023-12-07T02:53:42;1.10;99.90
5792;DHT22;2922;53.482;10.006;2023-12-07T02:56:08;1.10;99.90
5792;DHT22;2922;53.482;10.006;2023-12-07T02:58:33;1.10;99.90
5792;DHT22;2922;53.482;10.006;2023-12-07T03:00:59;1.20;99.90
5792;DHT22;2922;53.482;10.006;2023-12-07T03:03:25;1.20;99.90
5792;DHT22;2922;53.482;10.006;2023-12-07T03:05:50;1.20;99.90
5792;DHT22;2922;53.482;10.006;2023-12-07T03:08:16;1.20;99.90
5792;DHT22;2922;53.482;10.006;2023-12-07T03:10:42;1.20;99.90
5792;DHT22;2922;53.482;10.006;2023-12-07T03:13:07;1.20;99.90
5792;DHT22;2922;53.482;10.006;2023-12-07T03:15:33;1.20;99.90
5792;DHT22;2922;53.482;10.006;2023-12-07T03:17:58;1.20;99.90
5792;DHT22;2922;53.482;10.006;2023-12-07T03:20:24;1.20;99.90
5792;DHT22;2922;53.482;10.006;2023-12-07T03:22:49;1.20;99.90
5792;DHT22;2922;53.482;10.006;2023-12-07T03:25:15;1.20;99.90
5792;DHT22;2922;53.482;10.006;2023-12-07T03:27:40;1.20;99.90
5792;DHT22;2922;53.482;10.006;2023-12-07T03:30:06;1.20;99.90
5792;DHT22;2922;53.482;10.006;2023-12-07T03:32:32;1.20;99.90
5792;DHT22;2922;53.482;10.006;2023-12-07T03:34:58;1.20;99.90
5792;DHT22;2922;53.482;10.006;2023-12-07T03:37:23;1.20;99.90
5792;DHT22;2922;53.482;10.006;2023-12-07T03:39:49;1.20;99.90
5792;DHT22;2922;53.482;10.006;2023-12-07T03:42:14;1.20;99.90
5792;DHT22;2922;53.482;10.006;2023-12-07T03:44:40;1.30;99.90
5792;DHT22;2922;53.482;10.006;2023-12-07T03:47:05;1.30;99.90
5792;DHT22;2922;53.482;10.006;2023-12-07T03:49:31;1.30;99.90
5792;DHT22;2922;53.482;10.006;2023-12-07T03:51:57;1.30;99.90
5792;DHT22;2922;53.482;10.006;2023-12-07T03:54:22;1.30;99.90
5792;DHT22;2922;53.482;10.006;2023-12-07T03:56:48;1.30;99.90
5792;DHT22;2922;53.482;10.006;2023-12-07T03:59:14;1.30;99.90
5792;DHT22;2922;53.482;10.006;2023-12-07T04:01:40;1.30;99.90
5792;DHT22;2922;53.482;10.006;2023-12-07T04:04:06;1.30;99.90
5792;DHT22;2922;53.482;10.006;2023-12-07T04:06:31;1.40;99.90
5792;DHT22;2922;53.482;10.006;2023-12-07T04:08:57;1.40;99.90
5792;DHT22;2922;53.482;10.006;2023-12-07T04:11:22;1.40;99.90
5792;DHT22;2922;53.482;10.006;2023-12-07T04:13:48;1.40;99.90
5792;DHT22;2922;53.482;10.006;2023-12-07T04:16:14;1.40;99.90
5792;DHT22;2922;53.482;10.006;2023-12-07T04:18:40;1.40;99.90
5792;DHT22;2922;53.482;10.006;2023-12-07T04:21:05;1.40;99.90
5792;DHT22;2922;53.482;10.006;2023-12-07T04:23:31;1.40;99.90
5792;DHT22;2922;53.482;10.006;2023-12-07T04:25:57;1.40;99.90
5792;DHT22;2922;53.482;10.006;2023-12-07T04:28:22;1.40;99.90
5792;DHT22;2922;53.482;10.006;2023-12-07T04:30:48;1.40;99.90
5792;DHT22;2922;53.482;10.006;2023-12-07T04:33:14;1.40;99.90
5792;DHT22;2922;53.482;10.006;2023-12-07T04:35:39;1.40;99.90
5792;DHT22;2922;53.482;10.006;2023-12-07T04:38:05;1.40;99.90
5792;DHT22;2922;53.482;10.006;2023-12-07T04:40:31;1.40;99.90
5792;DHT22;2922;53.482;10.006;2023-12-07T04:42:56;1.40;99.90
5792;DHT22;2922;53.482;10.006;2023-12-07T04:45:22;1.40;99.90
5792;DHT22;2922;53.482;10.006;2023-12-07T04:47:47;1.50;99.90
5792;DHT22;2922;53.482;10.006;2023-12-07T04:50:13;1.40;99.90
5792;DHT22;2922;53.482;10.006;2023-12-07T04:52:39;1.40;99.90
5792;DHT22;2922;53.482;10.006;2023-12-07T04:55:05;1.40;99.90
5792;DHT22;2922;53.482;10.006;2023-12-07T04:57:35;1.50;99.90
5792;DHT22;2922;53.482;10.006;2023-12-07T05:00:01;1.50;99.90
5792;DHT22;2922;53.482;10.006;2023-12-07T05:02:31;1.50;99.90
5792;DHT22;2922;53.482;10.006;2023-12-07T05:04:57;1.40;99.90
5792;DHT22;2922;53.482;10.006;2023-12-07T05:07:22;1.50;99.90
5792;DHT22;2922;53.482;10.006;2023-12-07T05:09:49;1.50;99.90
5792;DHT22;2922;53.482;10.006;2023-12-07T05:12:16;1.50;99.90
5792;DHT22;2922;53.482;10.006;2023-12-07T05:14:41;1.50;99.90
5792;DHT22;2922;53.482;10.006;2023-12-07T05:17:07;1.50;99.90
5792;DHT22;2922;53.482;10.006;2023-12-07T05:19:32;1.50;99.90
5792;DHT22;2922;53.482;10.006;2023-12-07T05:21:58;1.50;99.90
5792;DHT22;2922;53.482;10.006;2023-12-07T05:24:24;1.50;99.90
5792;DHT22;2922;53.482;10.006;2023-12-07T05:26:49;1.50;99.90
5792;DHT22;2922;53.482;10.006;2023-12-07T05:29:15;1.50;99.90
5792;DHT22;2922;53.482;10.006;2023-12-07T05:31:41;1.50;99.90
5792;DHT22;2922;53.482;10.006;2023-12-07T05:34:09;1.50;99.90
5792;DHT22;2922;53.482;10.006;2023-12-07T05:36:35;1.50;99.90
5792;DHT22;2922;53.482;10.006;2023-12-07T05:39:01;1.50;99.90
5792;DHT22;2922;53.482;10.006;2023-12-07T05:41:26;1.50;99.90
5792;DHT22;2922;53.482;10.006;2023-12-07T05:43:52;1.50;99.90
5792;DHT22;2922;53.482;10.006;2023-12-07T05:46:18;1.50;99.90
5792;DHT22;2922;53.482;10.006;2023-12-07T05:48:44;1.50;99.90
5792;DHT22;2922;53.482;10.006;2023-12-07T05:51:13;1.60;99.90
5792;DHT22;2922;53.482;10.006;2023-12-07T05:53:42;1.50;99.90
5792;DHT22;2922;53.482;10.006;2023-12-07T05:56:08;1.60;99.90
5792;DHT22;2922;53.482;10.006;2023-12-07T05:58:34;1.60;99.90
5792;DHT22;2922;53.482;10.006;2023-12-07T06:01:00;1.60;99.90
5792;DHT22;2922;53.482;10.006;2023-12-07T06:03:27;1.60;99.90
5792;DHT22;2922;53.482;10.006;2023-12-07T06:05:52;1.60;99.90
5792;DHT22;2922;53.482;10.006;2023-12-07T06:08:18;1.60;99.90
5792;DHT22;2922;53.482;10.006;2023-12-07T06:10:43;1.50;99.90
5792;DHT22;2922;53.482;10.006;2023-12-07T06:13:09;1.50;99.90
5792;DHT22;2922;53.482;10.006;2023-12-07T06:15:35;1.50;99.90
5792;DHT22;2922;53.482;10.006;2023-12-07T06:18:01;1.50;99.90
5792;DHT22;2922;53.482;10.006;2023-12-07T06:20:26;1.50;99.90
5792;DHT22;2922;53.482;10.006;2023-12-07T06:22:52;1.50;99.90
5792;DHT22;2922;53.482;10.006;2023-12-07T06:25:18;1.50;99.90
5792;DHT22;2922;53.482;10.006;2023-12-07T06:27:43;1.50;99.90
5792;DHT22;2922;53.482;10.006;2023-12-07T06:30:09;1.50;99.90
5792;DHT22;2922;53.482;10.006;2023-12-07T06:32:36;1.50;99.90
5792;DHT22;2922;53.482;10.006;2023-12-07T06:35:06;1.50;99.90
5792;DHT22;2922;53.482;10.006;2023-12-07T06:37:32;1.50;99.90
5792;DHT22;2922;53.482;10.006;2023-12-07T06:39:57;1.50;99.90
5792;DHT22;2922;53.482;10.006;2023-12-07T06:42:24;1.50;99.90
5792;DHT22;2922;53.482;10.006;2023-12-07T06:44:49;1.50;99.90
5792;DHT22;2922;53.482;10.006;2023-12-07T06:47:15;1.50;99.90
5792;DHT22;2922;53.482;10.006;2023-12-07T06:49:41;1.60;99.90
5792;DHT22;2922;53.482;10.006;2023-12-07T06:52:07;1.50;99.90
5792;DHT22;2922;53.482;10.006;2023-12-07T06:54:33;1.60;99.90
5792;DHT22;2922;53.482;10.006;2023-12-07T06:56:59;1.60;99.90
5792;DHT22;2922;53.482;10.006;2023-12-07T06:59:25;1.60;99.90
5792;DHT22;2922;53.482;10.006;2023-12-07T07:01:50;1.60;99.90
5792;DHT22;2922;53.482;10.006;2023-12-07T07:04:16;1.60;99.90
5792;DHT22;2922;53.482;10.006;2023-12-07T07:06:42;1.60;99.90
5792;DHT22;2922;53.482;10.006;2023-12-07T07:09:08;1.60;99.90
5792;DHT22;2922;53.482;10.006;2023-12-07T07:11:33;1.60;99.90
5792;DHT22;2922;53.482;10.006;2023-12-07T07:14:00;1.60;99.90
5792;DHT22;2922;53.482;10.006;2023-12-07T07:16:25;1.60;99.90
5792;DHT22;2922;53.482;10.006;2023-12-07T07:18:51;1.70;99.90
5792;DHT22;2922;53.482;10.006;2023-12-07T07:21:16;1.70;99.90
5792;DHT22;2922;53.482;10.006;2023-12-07T07:23:42;1.70;99.90
5792;DHT22;2922;53.482;10.006;2023-12-07T07:26:08;1.60;99.90
5792;DHT22;2922;53.482;10.006;2023-12-07T07:28:33;1.60;99.90
5792;DHT22;2922;53.482;10.006;2023-12-07T07:31:00;1.70;99.90
5792;DHT22;2922;53.482;10.006;2023-12-07T07:33:25;1.60;99.90
5792;DHT22;2922;53.482;10.006;2023-12-07T07:35:51;1.60;99.90
5792;DHT22;2922;53.482;10.006;2023-12-07T07:38:16;1.70;99.90
5792;DHT22;2922;53.482;10.006;2023-12-07T07:40:42;1.70;99.90
5792;DHT22;2922;53.482;10.006;2023-12-07T07:43:08;1.70;99.90
5792;DHT22;2922;53.482;10.006;2023-12-07T07:45:33;1.70;99.90
5792;DHT22;2922;53.482;10.006;2023-12-07T07:48:00;1.70;99.90
5792;DHT22;2922;53.482;10.006;2023-12-07T07:50:25;1.70;99.90
5792;DHT22;2922;53.482;10.006;2023-12-07T07:52:51;1.70;99.90
5792;DHT22;2922;53.482;10.006;2023-12-07T07:55:16;1.70;99.90
5792;DHT22;2922;53.482;10.006;2023-12-07T07:57:43;1.70;99.90
5792;DHT22;2922;53.482;10.006;2023-12-07T08:00:09;1.70;99.90
5792;DHT22;2922;53.482;10.006;2023-12-07T08:02:35;1.70;99.90
5792;DHT22;2922;53.482;10.006;2023-12-07T08:05:02;1.70;99.90
5792;DHT22;2922;53.482;10.006;2023-12-07T08:07:27;1.70;99.90
5792;DHT22;2922;53.482;10.006;2023-12-07T08:09:53;1.70;99.90
5792;DHT22;2922;53.482;10.006;2023-12-07T08:12:19;1.80;99.90
5792;DHT22;2922;53.482;10.006;2023-12-07T08:14:44;1.80;99.90
5792;DHT22;2922;53.482;10.006;2023-12-07T08:17:11;1.80;99.90
5792;DHT22;2922;53.482;10.006;2023-12-07T08:19:37;1.80;99.90
5792;DHT22;2922;53.482;10.006;2023-12-07T08:22:03;1.80;99.90
5792;DHT22;2922;53.482;10.006;2023-12-07T08:24:29;1.90;99.90
5792;DHT22;2922;53.482;10.006;2023-12-07T08:26:54;1.90;99.90
5792;DHT22;2922;53.482;10.006;2023-12-07T08:29:20;1.90;99.90
5792;DHT22;2922;53.482;10.006;2023-12-07T08:31:46;1.90;99.90
5792;DHT22;2922;53.482;10.006;2023-12-07T08:34:12;2.00;99.90
5792;DHT22;2922;53.482;10.006;2023-12-07T08:36:38;2.00;99.90
5792;DHT22;2922;53.482;10.006;2023-12-07T08:39:03;2.00;99.90
5792;DHT22;2922;53.482;10.006;2023-12-07T08:41:29;2.00;99.90
5792;DHT22;2922;53.482;10.006;2023-12-07T08:43:54;2.10;99.90
5792;DHT22;2922;53.482;10.006;2023-12-07T08:46:20;2.10;99.90
5792;DHT22;2922;53.482;10.006;2023-12-07T08:48:46;2.10;99.90
5792;DHT22;2922;53.482;10.006;2023-12-07T08:51:11;2.10;99.90
5792;DHT22;2922;53.482;10.006;2023-12-07T08:53:38;2.20;99.90
5792;DHT22;2922;53.482;10.006;2023-12-07T08:56:04;2.20;99.90
5792;DHT22;2922;53.482;10.006;2023-12-07T08:58:30;2.30;99.90
5792;DHT22;2922;53.482;10.006;2023-12-07T09:00:56;2.30;99.90
5792;DHT22;2922;53.482;10.006;2023-12-07T09:03:21;2.30;99.90
5792;DHT22;2922;53.482;10.006;2023-12-07T09:05:52;2.30;99.90
5792;DHT22;2922;53.482;10.006;2023-12-07T09:08:18;2.30;99.90
5792;DHT22;2922;53.482;10.006;2023-12-07T09:10:44;2.30;99.90
5792;DHT22;2922;53.482;10.006;2023-12-07T09:13:09;2.30;99.90
5792;DHT22;2922;53.482;10.006;2023-12-07T09:15:35;2.30;99.90
5792;DHT22;2922;53.482;10.006;2023-12-07T09:18:03;2.40;99.90
5792;DHT22;2922;53.482;10.006;2023-12-07T09:20:28;2.30;99.90
5792;DHT22;2922;53.482;10.006;2023-12-07T09:22:54;2.30;99.90
5792;DHT22;2922;53.482;10.006;2023-12-07T09:25:22;2.20;99.90
5792;DHT22;2922;53.482;10.006;2023-12-07T09:27:48;2.20;99.90
5792;DHT22;2922;53.482;10.006;2023-12-07T09:30:13;2.20;99.90
5792;DHT22;2922;53.482;10.006;2023-12-07T09:32:42;2.20;99.90
5792;DHT22;2922;53.482;10.006;2023-12-07T09:35:09;2.20;99.90
5792;DHT22;2922;53.482;10.006;2023-12-07T09:37:48;2.30;99.90
5792;DHT22;2922;53.482;10.006;2023-12-07T09:40:18;2.20;99.90
5792;DHT22;2922;53.482;10.006;2023-12-07T09:42:48;2.30;99.90
5792;DHT22;2922;53.482;10.006;2023-12-07T09:45:15;2.20;99.90
5792;DHT22;2922;53.482;10.006;2023-12-07T09:47:42;2.30;99.90
5792;DHT22;2922;53.482;10.006;2023-12-07T09:50:09;2.30;99.90
5792;DHT22;2922;53.482;10.006;2023-12-07T09:52:35;2.30;99.90
5792;DHT22;2922;53.482;10.006;2023-12-07T09:55:02;2.30;99.90
5792;DHT22;2922;53.482;10.006;2023-12-07T09:57:28;2.30;99.90
5792;DHT22;2922;53.482;10.006;2023-12-07T09:59:55;2.30;99.90
5792;DHT22;2922;53.482;10.006;2023-12-07T10:02:21;2.30;99.90
5792;DHT22;2922;53.482;10.006;2023-12-07T10:04:47;2.30;99.90
5792;DHT22;2922;53.482;10.006;2023-12-07T10:07:13;2.30;99.90
5792;DHT22;2922;53.482;10.006;2023-12-07T10:09:39;2.30;99.90
5792;DHT22;2922;53.482;10.006;2023-12-07T10:12:08;2.40;99.90
5792;DHT22;2922;53.482;10.006;2023-12-07T10:14:34;2.40;99.90
5792;DHT22;2922;53.482;10.006;2023-12-07T10:17:00;2.30;99.90
5792;DHT22;2922;53.482;10.006;2023-12-07T10:19:26;2.30;99.90
5792;DHT22;2922;53.482;10.006;2023-12-07T10:21:53;2.30;99.90
5792;DHT22;2922;53.482;10.006;2023-12-07T10:24:23;2.30;99.90
5792;DHT22;2922;53.482;10.006;2023-12-07T10:26:51;2.30;99.90
5792;DHT22;2922;53.482;10.006;2023-12-07T10:29:20;2.30;99.90
5792;DHT22;2922;53.482;10.006;2023-12-07T10:31:46;2.40;99.90
5792;DHT22;2922;53.482;10.006;2023-12-07T10:34:18;2.40;99.90
5792;DHT22;2922;53.482;10.006;2023-12-07T10:36:46;2.40;99.90
5792;DHT22;2922;53.482;10.006;2023-12-07T10:39:13;2.40;99.90
5792;DHT22;2922;53.482;10.006;2023-12-07T10:41:42;2.40;99.90
5792;DHT22;2922;53.482;10.006;2023-12-07T10:44:13;2.40;99.90
5792;DHT22;2922;53.482;10.006;2023-12-07T10:46:39;2.40;99.90
5792;DHT22;2922;53.482;10.006;2023-12-07T10:49:08;2.50;99.90
5792;DHT22;2922;53.482;10.006;2023-12-07T10:51:50;2.50;99.90
5792;DHT22;2922;53.482;10.006;2023-12-07T10:54:20;2.50;99.90
5792;DHT22;2922;53.482;10.006;2023-12-07T10:56:48;2.50;99.90
5792;DHT22;2922;53.482;10.006;2023-12-07T10:59:16;2.50;99.90
5792;DHT22;2922;53.482;10.006;2023-12-07T11:01:43;2.50;99.90
5792;DHT22;2922;53.482;10.006;2023-12-07T11:04:13;2.60;99.90
5792;DHT22;2922;53.482;10.006;2023-12-07T11:06:45;2.60;99.90
5792;DHT22;2922;53.482;10.006;2023-12-07T11:09:19;2.60;99.90
5792;DHT22;2922;53.482;10.006;2023-12-07T11:11:57;2.70;99.90
5792;DHT22;2922;53.482;10.006;2023-12-07T11:14:25;2.70;99.90
5792;DHT22;2922;53.482;10.006;2023-12-07T11:16:52;2.70;99.90
5792;DHT22;2922;53.482;10.006;2023-12-07T11:22:07;2.70;99.90
5792;DHT22;2922;53.482;10.006;2023-12-07T11:24:33;2.70;99.90
5792;DHT22;2922;53.482;10.006;2023-12-07T11:26:59;2.70;99.90
5792;DHT22;2922;53.482;10.006;2023-12-07T11:29:26;2.70;99.90
5792;DHT22;2922;53.482;10.006;2023-12-07T11:31:56;2.70;99.90
5792;DHT22;2922;53.482;10.006;2023-12-07T11:34:42;2.70;99.90
5792;DHT22;2922;53.482;10.006;2023-12-07T11:37:09;2.70;99.90
5792;DHT22;2922;53.482;10.006;2023-12-07T11:39:36;2.70;99.90
5792;DHT22;2922;53.482;10.006;2023-12-07T11:42:17;2.70;99.90
5792;DHT22;2922;53.482;10.006;2023-12-07T11:44:47;2.70;99.90
5792;DHT22;2922;53.482;10.006;2023-12-07T11:47:19;2.70;99.90
5792;DHT22;2922;53.482;10.006;2023-12-07T11:49:46;2.80;99.90
5792;DHT22;2922;53.482;10.006;2023-12-07T11:52:16;2.80;99.90
5792;DHT22;2922;53.482;10.006;2023-12-07T11:54:45;2.80;99.90
5792;DHT22;2922;53.482;10.006;2023-12-07T11:57:11;2.80;99.90
5792;DHT22;2922;53.482;10.006;2023-12-07T11:59:37;2.80;99.90
5792;DHT22;2922;53.482;10.006;2023-12-07T12:02:03;2.80;99.90
5792;DHT22;2922;53.482;10.006;2023-12-07T12:04:29;2.80;99.90
5792;DHT22;2922;53.482;10.006;2023-12-07T12:06:55;2.80;99.90
5792;DHT22;2922;53.482;10.006;2023-12-07T12:09:24;2.80;99.90
5792;DHT22;2922;53.482;10.006;2023-12-07T12:11:50;2.80;99.90
5792;DHT22;2922;53.482;10.006;2023-12-07T12:14:16;2.80;99.90
5792;DHT22;2922;53.482;10.006;2023-12-07T12:16:43;2.80;99.90
5792;DHT22;2922;53.482;10.006;2023-12-07T12:19:09;2.80;99.90
5792;DHT22;2922;53.482;10.006;2023-12-07T12:21:38;2.80;99.90
5792;DHT22;2922;53.482;10.006;2023-12-07T12:24:07;2.80;99.90
5792;DHT22;2922;53.482;10.006;2023-12-07T12:26:37;2.80;99.90
5792;DHT22;2922;53.482;10.006;2023-12-07T12:29:03;2.80;99.90
5792;DHT22;2922;53.482;10.006;2023-12-07T12:31:29;2.80;99.90
5792;DHT22;2922;53.482;10.006;2023-12-07T12:33:55;2.80;99.90
5792;DHT22;2922;53.482;10.006;2023-12-07T12:36:21;2.80;99.90
5792;DHT22;2922;53.482;10.006;2023-12-07T12:38:49;2.80;99.90
5792;DHT22;2922;53.482;10.006;2023-12-07T12:41:18;2.80;99.90
5792;DHT22;2922;53.482;10.006;2023-12-07T12:43:44;2.90;99.90
5792;DHT22;2922;53.482;10.006;2023-12-07T12:46:10;2.90;99.90
5792;DHT22;2922;53.482;10.006;2023-12-07T12:48:37;2.90;99.90
5792;DHT22;2922;53.482;10.006;2023-12-07T12:51:08;2.90;99.90
5792;DHT22;2922;53.482;10.006;2023-12-07T12:53:33;2.90;99.90
5792;DHT22;2922;53.482;10.006;2023-12-07T12:55:59;2.90;99.90
5792;DHT22;2922;53.482;10.006;2023-12-07T12:58:24;2.90;99.90
5792;DHT22;2922;53.482;10.006;2023-12-07T13:00:50;2.90;99.90
5792;DHT22;2922;53.482;10.006;2023-12-07T13:03:16;2.90;99.90
5792;DHT22;2922;53.482;10.006;2023-12-07T13:05:42;2.80;99.90
5792;DHT22;2922;53.482;10.006;2023-12-07T13:08:07;2.80;99.90
5792;DHT22;2922;53.482;10.006;2023-12-07T13:10:34;2.80;99.90
5792;DHT22;2922;53.482;10.006;2023-12-07T13:13:00;2.80;99.90
5792;DHT22;2922;53.482;10.006;2023-12-07T13:15:27;2.80;99.90
5792;DHT22;2922;53.482;10.006;2023-12-07T13:17:53;2.80;99.90
5792;DHT22;2922;53.482;10.006;2023-12-07T13:20:18;2.80;99.90
5792;DHT22;2922;53.482;10.006;2023-12-07T13:22:44;2.80;99.90
5792;DHT22;2922;53.482;10.006;2023-12-07T13:25:10;2.70;99.90
5792;DHT22;2922;53.482;10.006;2023-12-07T13:27:38;2.80;99.90
5792;DHT22;2922;53.482;10.006;2023-12-07T13:30:04;2.80;99.90
5792;DHT22;2922;53.482;10.006;2023-12-07T13:32:33;2.70;99.90
5792;DHT22;2922;53.482;10.006;2023-12-07T13:35:00;2.80;99.90
5792;DHT22;2922;53.482;10.006;2023-12-07T13:37:26;2.80;99.90
5792;DHT22;2922;53.482;10.006;2023-12-07T13:39:51;2.80;99.90
5792;DHT22;2922;53.482;10.006;2023-12-07T13:42:23;2.80;99.90
5792;DHT22;2922;53.482;10.006;2023-12-07T13:44:54;2.80;99.90
5792;DHT22;2922;53.482;10.006;2023-12-07T13:47:22;2.70;99.90
5792;DHT22;2922;53.482;10.006;2023-12-07T13:49:51;2.70;99.90
5792;DHT22;2922;53.482;10.006;2023-12-07T13:52:17;2.80;99.90
5792;DHT22;2922;53.482;10.006;2023-12-07T13:54:43;2.80;99.90
5792;DHT22;2922;53.482;10.006;2023-12-07T13:57:08;2.70;99.90
5792;DHT22;2922;53.482;10.006;2023-12-07T13:59:35;2.80;99.90
5792;DHT22;2922;53.482;10.006;2023-12-07T14:02:02;2.70;99.90
5792;DHT22;2922;53.482;10.006;2023-12-07T14:04:28;2.70;99.90
5792;DHT22;2922;53.482;10.006;2023-12-07T14:06:53;2.70;99.90
5792;DHT22;2922;53.482;10.006;2023-12-07T14:09:19;2.70;99.90
5792;DHT22;2922;53.482;10.006;2023-12-07T14:11:45;2.70;99.90
5792;DHT22;2922;53.482;10.006;2023-12-07T14:14:11;2.70;99.90
5792;DHT22;2922;53.482;10.006;2023-12-07T14:16:38;2.70;99.90
5792;DHT22;2922;53.482;10.006;2023-12-07T14:19:05;2.70;99.90
5792;DHT22;2922;53.482;10.006;2023-12-07T14:21:31;2.70;99.90
5792;DHT22;2922;53.482;10.006;2023-12-07T14:23:56;2.60;99.90
5792;DHT22;2922;53.482;10.006;2023-12-07T14:26:23;2.60;99.90
5792;DHT22;2922;53.482;10.006;2023-12-07T14:28:49;2.60;99.90
5792;DHT22;2922;53.482;10.006;2023-12-07T14:31:14;2.60;99.90
5792;DHT22;2922;53.482;10.006;2023-12-07T14:33:43;2.60;99.90
5792;DHT22;2922;53.482;10.006;2023-12-07T14:36:10;2.60;99.90
5792;DHT22;2922;53.482;10.006;2023-12-07T14:38:37;2.60;99.90
5792;DHT22;2922;53.482;10.006;2023-12-07T14:41:02;2.60;99.90
5792;DHT22;2922;53.482;10.006;2023-12-07T14:43:29;2.60;99.90
5792;DHT22;2922;53.482;10.006;2023-12-07T14:45:55;2.60;99.90
5792;DHT22;2922;53.482;10.006;2023-12-07T14:48:21;2.50;99.90
5792;DHT22;2922;53.482;10.006;2023-12-07T14:50:46;2.50;99.90
5792;DHT22;2922;53.482;10.006;2023-12-07T14:53:12;2.50;99.90
5792;DHT22;2922;53.482;10.006;2023-12-07T14:55:37;2.50;99.90
5792;DHT22;2922;53.482;10.006;2023-12-07T14:58:03;2.50;99.90
5792;DHT22;2922;53.482;10.006;2023-12-07T15:00:28;2.50;99.90
5792;DHT22;2922;53.482;10.006;2023-12-07T15:02:54;2.50;99.90
5792;DHT22;2922;53.482;10.006;2023-12-07T15:05:20;2.50;99.90
5792;DHT22;2922;53.482;10.006;2023-12-07T15:07:45;2.50;99.90
5792;DHT22;2922;53.482;10.006;2023-12-07T15:10:11;2.50;99.90
5792;DHT22;2922;53.482;10.006;2023-12-07T15:12:36;2.50;99.90
5792;DHT22;2922;53.482;10.006;2023-12-07T15:15:02;2.50;99.90
5792;DHT22;2922;53.482;10.006;2023-12-07T15:17:31;2.50;99.90
5792;DHT22;2922;53.482;10.006;2023-12-07T15:19:57;2.50;99.90
5792;DHT22;2922;53.482;10.006;2023-12-07T15:22:22;2.50;99.90
5792;DHT22;2922;53.482;10.006;2023-12-07T15:24:48;2.50;99.90
5792;DHT22;2922;53.482;10.006;2023-12-07T15:27:13;2.50;99.90
5792;DHT22;2922;53.482;10.006;2023-12-07T15:29:39;2.50;99.90
5792;DHT22;2922;53.482;10.006;2023-12-07T15:32:05;2.50;99.90
5792;DHT22;2922;53.482;10.006;2023-12-07T15:34:32;2.50;99.90
5792;DHT22;2922;53.482;10.006;2023-12-07T15:36:58;2.50;99.90
5792;DHT22;2922;53.482;10.006;2023-12-07T15:39:23;2.40;99.90
5792;DHT22;2922;53.482;10.006;2023-12-07T15:41:49;2.40;99.90
5792;DHT22;2922;53.482;10.006;2023-12-07T15:44:14;2.40;99.90
5792;DHT22;2922;53.482;10.006;2023-12-07T15:46:40;2.40;99.90
5792;DHT22;2922;53.482;10.006;2023-12-07T15:49:05;2.40;99.90
5792;DHT22;2922;53.482;10.006;2023-12-07T15:51:31;2.40;99.90
5792;DHT22;2922;53.482;10.006;2023-12-07T15:53:57;2.40;99.90
5792;DHT22;2922;53.482;10.006;2023-12-07T15:56:22;2.40;99.90
5792;DHT22;2922;53.482;10.006;2023-12-07T15:58:48;2.40;99.90
5792;DHT22;2922;53.482;10.006;2023-12-07T16:01:13;2.40;99.90